Time;durP1;ratioP1;P1;durP2;ratioP2;P2;SDS_P1;SDS_P2;PMS_P1;PMS_P2;Temp;Humidity;BMP_temperature;BMP_pressure;BME280_temperature;BME280_humidity;BME280_pressure;Samples;Min_cycle;Max_cycle;Signal;HPM_P1;HPM_P2
2023/11/26 00:01:46;;;;;;;8.60;2.65;;;4.80;90.20;;;;;;9173953;19;20021;-73
2023/11/26 00:04:54;;;;;;;7.57;2.20;;;4.80;90.20;;;;;;9174595;19;20256;-73
2023/11/26 00:08:01;;;;;;;4.68;2.38;;;4.80;90.20;;;;;;9170537;19;20018;-73
2023/11/26 00:11:07;;;;;;;9.50;2.80;;;4.80;90.20;;;;;;9172192;19;20657;-73
2023/11/26 00:14:15;;;;;;;6.15;2.85;;;4.80;90.40;;;;;;9173369;19;20014;-74
2023/11/26 00:17:20;;;;;;;6.05;2.80;;;4.90;90.40;;;;;;9171617;19;20022;-74
2023/11/26 00:20:31;;;;;;;4.95;3.03;;;4.90;90.30;;;;;;9173343;19;20029;-73
2023/11/26 00:23:36;;;;;;;7.32;3.38;;;4.80;90.60;;;;;;9169139;19;20045;-74
2023/11/26 00:26:44;;;;;;;5.20;2.90;;;4.80;90.40;;;;;;9173324;19;20652;-71
2023/11/26 00:29:49;;;;;;;7.75;3.10;;;4.80;90.80;;;;;;9173498;19;20022;-73
2023/11/26 00:32:57;;;;;;;9.82;3.70;;;4.90;90.60;;;;;;9173552;19;20487;-74
2023/11/26 00:36:05;;;;;;;6.35;3.70;;;4.90;90.80;;;;;;9173345;19;20039;-74
2023/11/26 00:39:12;;;;;;;7.85;2.90;;;4.90;91.50;;;;;;9172355;19;20018;-75
2023/11/26 00:42:18;;;;;;;5.60;2.60;;;4.90;90.80;;;;;;9171700;19;20014;-74
2023/11/26 00:45:25;;;;;;;5.82;2.28;;;5.00;91.20;;;;;;9169202;19;20025;-73
2023/11/26 00:48:31;;;;;;;9.07;2.50;;;5.00;90.80;;;;;;9173187;19;20010;-73
2023/11/26 00:51:41;;;;;;;6.30;2.22;;;4.90;90.80;;;;;;9172562;19;20023;-69
2023/11/26 00:54:47;;;;;;;6.18;2.45;;;5.00;90.70;;;;;;9172974;19;20753;-73
2023/11/26 00:57:54;;;;;;;8.02;2.42;;;5.00;90.90;;;;;;9172009;19;20015;-73
2023/11/26 01:00:59;;;;;;;8.25;2.15;;;5.00;91.00;;;;;;9172918;19;20018;-73
2023/11/26 01:04:07;;;;;;;5.70;2.65;;;5.00;90.90;;;;;;9170804;19;20026;-74
2023/11/26 01:07:16;;;;;;;5.47;2.72;;;5.10;90.80;;;;;;9173278;19;20517;-73
2023/11/26 01:10:24;;;;;;;5.65;2.65;;;4.90;91.00;;;;;;9172253;19;20010;-75
2023/11/26 01:13:29;;;;;;;5.25;2.40;;;4.90;91.20;;;;;;9171689;19;20037;-74
2023/11/26 01:16:37;;;;;;;5.35;2.75;;;5.00;91.40;;;;;;9172449;19;20014;-73
2023/11/26 01:19:45;;;;;;;3.72;2.20;;;5.10;90.50;;;;;;9167171;19;20034;-73
2023/11/26 01:22:56;;;;;;;4.00;2.22;;;4.80;90.20;;;;;;9171797;19;20028;-73
2023/11/26 01:26:01;;;;;;;7.70;2.85;;;4.80;90.30;;;;;;9171593;19;20010;-72
2023/11/26 01:29:09;;;;;;;5.60;3.00;;;4.80;90.40;;;;;;9169284;19;20509;-73
2023/11/26 01:32:15;;;;;;;7.03;3.25;;;4.80;90.30;;;;;;9171379;19;20047;-73
2023/11/26 01:35:22;;;;;;;6.65;3.80;;;4.70;90.40;;;;;;9169505;19;20025;-72
2023/11/26 01:38:30;;;;;;;11.82;3.70;;;4.70;90.40;;;;;;9170760;19;20625;-71
2023/11/26 01:41:38;;;;;;;5.10;3.15;;;4.70;90.30;;;;;;9171226;19;20014;-73
2023/11/26 01:44:43;;;;;;;6.07;3.10;;;4.70;90.50;;;;;;9163920;19;20011;-72
2023/11/26 01:47:51;;;;;;;4.53;2.95;;;4.70;90.40;;;;;;9171594;19;20116;-73
2023/11/26 01:50:58;;;;;;;9.63;2.47;;;4.60;90.40;;;;;;9170877;19;20759;-73
2023/11/26 01:54:08;;;;;;;5.15;3.08;;;4.70;90.60;;;;;;9171499;19;20018;-72
2023/11/26 01:57:17;;;;;;;8.68;3.13;;;4.60;90.60;;;;;;9177212;19;20022;-72
2023/11/26 02:00:25;;;;;;;9.45;2.42;;;4.60;90.60;;;;;;9178010;19;20017;-73
2023/11/26 02:03:30;;;;;;;6.75;2.38;;;4.50;90.70;;;;;;9176727;19;20082;-68
2023/11/26 02:06:38;;;;;;;6.90;2.72;;;4.50;90.90;;;;;;9178918;19;20077;-67
2023/11/26 02:09:47;;;;;;;3.15;2.28;;;4.50;90.90;;;;;;9179214;19;20011;-67
2023/11/26 02:13:04;;;;;;;8.10;2.42;;;4.50;91.00;;;;;;9178743;19;20015;-70
2023/11/26 02:16:10;;;;;;;5.68;2.30;;;4.40;91.00;;;;;;9174322;19;20014;-68
2023/11/26 02:19:27;;;;;;;3.47;2.15;;;4.40;91.10;;;;;;9175046;19;20264;-69
2023/11/26 02:22:34;;;;;;;6.10;2.53;;;4.40;91.20;;;;;;9177369;19;20017;-71
2023/11/26 02:25:44;;;;;;;5.47;2.67;;;4.30;91.20;;;;;;9176648;19;20018;-69
2023/11/26 02:28:50;;;;;;;5.70;2.88;;;4.30;91.60;;;;;;9176809;19;20037;-68
2023/11/26 02:31:58;;;;;;;5.45;2.60;;;4.30;92.20;;;;;;9178617;19;20499;-67
2023/11/26 02:35:03;;;;;;;5.68;3.20;;;4.30;92.90;;;;;;9178366;19;20014;-68
2023/11/26 02:38:12;;;;;;;10.13;2.40;;;4.20;92.60;;;;;;9177825;19;20018;-69
2023/11/26 02:41:21;;;;;;;5.47;2.00;;;4.20;92.10;;;;;;9177726;19;20038;-68
2023/11/26 02:44:29;;;;;;;4.28;2.45;;;4.10;91.00;;;;;;9172286;19;20025;-67
2023/11/26 02:47:35;;;;;;;5.90;2.08;;;4.10;91.20;;;;;;9177853;19;20021;-67
2023/11/26 02:50:43;;;;;;;4.53;2.22;;;4.10;91.30;;;;;;9177734;19;20108;-68
2023/11/26 02:53:48;;;;;;;8.85;2.55;;;4.10;91.50;;;;;;9176936;19;20015;-68
2023/11/26 02:56:58;;;;;;;3.45;2.13;;;4.20;92.00;;;;;;9177451;19;20024;-67
2023/11/26 03:00:15;;;;;;;4.85;2.38;;;4.10;92.00;;;;;;9177257;19;20757;-68
2023/11/26 03:03:23;;;;;;;5.60;2.35;;;4.10;92.40;;;;;;9175769;19;20017;-68
2023/11/26 03:06:31;;;;;;;5.35;3.58;;;4.00;92.30;;;;;;9177220;19;20018;-71
2023/11/26 03:12:56;;;;;;;9.57;2.58;;;4.00;92.70;;;;;;9176205;19;20017;-67
2023/11/26 03:13:07;;;;;;;8.77;2.83;;;;;;;;;;9174961;19;20532;-67
2023/11/26 03:16:15;;;;;;;7.78;2.55;;;3.80;88.20;;;;;;9176599;19;20022;-67
2023/11/26 03:19:22;;;;;;;6.40;2.72;;;3.80;89.00;;;;;;9176351;19;20025;-68
2023/11/26 03:22:31;;;;;;;5.93;2.95;;;3.80;89.50;;;;;;9177072;19;20022;-68
2023/11/26 03:25:36;;;;;;;5.13;2.55;;;3.80;89.70;;;;;;9173079;19;20048;-72
2023/11/26 03:28:47;;;;;;;8.40;2.60;;;3.80;90.10;;;;;;9173110;19;20026;-69
2023/11/26 03:31:53;;;;;;;6.00;2.50;;;3.90;90.40;;;;;;9173768;19;20041;-68
2023/11/26 03:35:02;;;;;;;6.65;2.67;;;3.80;90.30;;;;;;9175371;19;20014;-70
2023/11/26 03:38:08;;;;;;;5.25;2.60;;;3.80;90.60;;;;;;9174525;19;20007;-69
2023/11/26 03:41:15;;;;;;;9.27;2.50;;;3.80;90.70;;;;;;9172109;19;20018;-68
2023/11/26 03:44:23;;;;;;;6.60;2.67;;;3.80;90.80;;;;;;9169135;19;20817;-67
2023/11/26 03:47:31;;;;;;;4.45;2.15;;;3.90;91.00;;;;;;9174987;19;20018;-68
2023/11/26 03:50:36;;;;;;;5.82;2.50;;;3.90;91.20;;;;;;9174651;19;20352;-68
2023/11/26 03:53:44;;;;;;;5.55;2.80;;;3.90;91.10;;;;;;9175110;19;20017;-72
2023/11/26 03:56:49;;;;;;;9.95;2.70;;;3.90;91.40;;;;;;9175994;19;20018;-67
2023/11/26 04:00:00;;;;;;;8.20;2.40;;;3.90;91.30;;;;;;9174730;19;20031;-68
2023/11/26 04:03:06;;;;;;;7.95;3.03;;;3.90;91.70;;;;;;9173976;19;20014;-67
2023/11/26 04:06:13;;;;;;;7.35;2.50;;;4.00;92.60;;;;;;9169798;19;20015;-67
2023/11/26 04:09:19;;;;;;;4.80;2.45;;;3.90;92.80;;;;;;9174010;19;20018;-68
2023/11/26 04:12:28;;;;;;;7.90;3.15;;;4.00;92.40;;;;;;9174570;19;20010;-67
2023/11/26 04:15:43;;;;;;;8.75;2.40;;;3.90;89.90;;;;;;9173373;19;20011;-68
2023/11/26 04:18:51;;;;;;;15.77;3.17;;;3.90;90.10;;;;;;9172107;19;20019;-68
2023/11/26 04:21:56;;;;;;;11.75;2.83;;;3.90;90.00;;;;;;9172482;19;20017;-69
2023/11/26 04:25:05;;;;;;;8.13;3.20;;;3.90;90.00;;;;;;9169975;19;20014;-67
2023/11/26 04:28:10;;;;;;;12.80;3.00;;;3.90;90.30;;;;;;9173597;19;20010;-67
2023/11/26 04:31:21;;;;;;;9.13;3.25;;;4.00;90.20;;;;;;9172460;19;20038;-68
2023/11/26 04:34:36;;;;;;;8.05;2.92;;;3.90;90.00;;;;;;9173387;19;20018;-69
2023/11/26 04:37:43;;;;;;;9.27;3.13;;;3.90;90.00;;;;;;9172897;19;20018;-68
2023/11/26 04:40:49;;;;;;;9.75;2.72;;;4.00;90.40;;;;;;9170689;19;20014;-69
2023/11/26 04:43:56;;;;;;;16.00;3.40;;;4.10;90.30;;;;;;9168633;19;20015;-69
2023/11/26 04:47:05;;;;;;;10.43;3.05;;;4.10;90.40;;;;;;9172418;19;20011;-68
2023/11/26 04:50:15;;;;;;;8.77;3.00;;;4.00;90.40;;;;;;9172195;19;20483;-68
2023/11/26 04:53:20;;;;;;;11.63;3.53;;;4.10;90.40;;;;;;9173688;19;20022;-68
2023/11/26 04:56:28;;;;;;;7.47;3.00;;;4.10;90.50;;;;;;9173605;19;20020;-68
2023/11/26 04:59:33;;;;;;;10.40;2.88;;;4.10;90.60;;;;;;9172211;19;20038;-69
2023/11/26 05:02:45;;;;;;;7.93;2.85;;;4.20;90.50;;;;;;9165825;19;20680;-67
2023/11/26 05:05:51;;;;;;;19.40;2.97;;;4.30;90.60;;;;;;9166880;19;20011;-68
2023/11/26 05:08:58;;;;;;;7.93;2.50;;;4.10;90.50;;;;;;9169108;19;20041;-67
2023/11/26 05:12:05;;;;;;;8.68;3.85;;;4.20;90.70;;;;;;9171070;19;20014;-68
2023/11/26 05:15:12;;;;;;;12.98;3.42;;;4.20;90.60;;;;;;9170171;19;20022;-69
2023/11/26 05:18:20;;;;;;;9.90;2.80;;;4.10;90.40;;;;;;9171477;19;20014;-67
2023/11/26 05:21:28;;;;;;;11.27;3.40;;;4.20;90.50;;;;;;9171850;19;20018;-68
2023/11/26 05:24:33;;;;;;;10.05;2.80;;;4.20;90.80;;;;;;9171352;19;20348;-66
2023/11/26 05:27:41;;;;;;;9.57;3.05;;;4.20;90.60;;;;;;9171548;19;20015;-68
2023/11/26 05:30:46;;;;;;;15.75;2.88;;;4.10;90.70;;;;;;9180239;19;20015;-69
2023/11/26 05:33:59;;;;;;;10.00;2.85;;;4.20;90.80;;;;;;9180354;19;21495;-68
2023/11/26 05:37:05;;;;;;;9.00;2.90;;;4.20;90.80;;;;;;9181958;19;20722;-68
2023/11/26 05:40:15;;;;;;;9.63;3.17;;;4.20;90.90;;;;;;9181397;19;20021;-68
2023/11/26 05:43:20;;;;;;;17.10;5.78;;;4.20;91.00;;;;;;9175335;19;20010;-68
2023/11/26 05:46:28;;;;;;;14.55;3.83;;;4.20;91.10;;;;;;9177302;19;20353;-68
2023/11/26 05:49:36;;;;;;;13.10;4.55;;;4.30;91.70;;;;;;9178674;19;20360;-69
2023/11/26 05:52:44;;;;;;;15.63;4.57;;;4.20;91.00;;;;;;9178521;19;20022;-67
2023/11/26 05:55:50;;;;;;;12.88;3.38;;;4.20;91.00;;;;;;9180032;19;20014;-68
2023/11/26 05:58:57;;;;;;;17.55;4.18;;;4.30;91.20;;;;;;9177885;19;20020;-67
2023/11/26 06:02:03;;;;;;;16.35;3.20;;;4.30;91.20;;;;;;9176793;19;20010;-67
2023/11/26 06:05:13;;;;;;;12.55;3.15;;;4.30;91.70;;;;;;9178486;19;20022;-69
2023/11/26 06:08:19;;;;;;;8.68;3.30;;;4.30;91.20;;;;;;9179236;19;20011;-69
2023/11/26 06:11:27;;;;;;;12.68;2.97;;;4.40;92.20;;;;;;9177685;19;20021;-68
2023/11/26 06:14:33;;;;;;;17.70;3.90;;;4.40;91.20;;;;;;9177892;19;20022;-67
2023/11/26 06:17:41;;;;;;;16.08;3.88;;;4.50;92.70;;;;;;9178813;19;20369;-68
2023/11/26 06:20:49;;;;;;;13.82;3.58;;;4.50;91.80;;;;;;9178493;19;20014;-67
2023/11/26 06:23:57;;;;;;;11.68;4.05;;;4.40;90.70;;;;;;9178908;19;20019;-67
2023/11/26 06:27:03;;;;;;;12.32;3.22;;;4.40;91.00;;;;;;9176208;19;20124;-69
2023/11/26 06:30:12;;;;;;;8.43;3.08;;;4.50;91.10;;;;;;9176874;19;20022;-68
2023/11/26 06:33:18;;;;;;;15.45;2.80;;;4.40;91.10;;;;;;9178593;19;20024;-70
2023/11/26 06:36:28;;;;;;;6.00;3.00;;;4.50;91.20;;;;;;9178250;19;20753;-69
2023/11/26 06:39:34;;;;;;;10.25;2.90;;;4.50;91.20;;;;;;9176743;19;20014;-69
2023/11/26 06:42:43;;;;;;;12.30;2.90;;;4.60;91.40;;;;;;9177352;19;20026;-72
2023/11/26 06:45:49;;;;;;;10.00;2.45;;;4.60;91.40;;;;;;9177146;19;20014;-72
2023/11/26 06:48:57;;;;;;;8.27;2.08;;;4.60;91.40;;;;;;9177950;19;20022;-72
2023/11/26 06:52:05;;;;;;;6.85;2.47;;;4.60;91.40;;;;;;9178102;19;20048;-72
2023/11/26 06:55:14;;;;;;;7.07;2.47;;;4.60;91.40;;;;;;9176244;19;20014;-71
2023/11/26 06:58:19;;;;;;;9.75;2.47;;;4.60;91.40;;;;;;9177516;19;20022;-72
2023/11/26 07:01:27;;;;;;;11.30;2.97;;;4.60;91.60;;;;;;9176590;19;20048;-72
2023/11/26 07:04:32;;;;;;;8.50;2.25;;;4.60;91.60;;;;;;9173472;19;20471;-73
2023/11/26 07:07:42;;;;;;;11.77;2.20;;;4.60;91.90;;;;;;9175053;19;20014;-70
2023/11/26 07:10:48;;;;;;;7.85;2.63;;;4.60;92.00;;;;;;9176172;19;20019;-71
2023/11/26 07:13:56;;;;;;;7.53;2.60;;;4.60;92.30;;;;;;9176348;19;20491;-72
2023/11/26 07:17:04;;;;;;;8.75;2.30;;;4.70;93.90;;;;;;9176992;19;20353;-72
2023/11/26 07:20:16;;;;;;;24.70;3.33;;;4.70;92.90;;;;;;9176965;19;20018;-72
2023/11/26 07:23:24;;;;;;;21.98;3.40;;;4.60;93.20;;;;;;9175628;19;20026;-71
2023/11/26 07:26:32;;;;;;;14.55;2.95;;;4.70;91.10;;;;;;9175589;19;20023;-72
2023/11/26 07:29:37;;;;;;;9.00;2.78;;;4.60;90.90;;;;;;9174998;19;20026;-71
2023/11/26 07:32:45;;;;;;;13.10;2.78;;;4.70;90.80;;;;;;9175770;19;20019;-74
2023/11/26 07:35:51;;;;;;;10.38;2.50;;;4.70;91.10;;;;;;9175907;19;20010;-73
2023/11/26 07:39:01;;;;;;;9.05;2.45;;;4.80;90.90;;;;;;9175825;19;20018;-72
2023/11/26 07:42:07;;;;;;;5.82;2.17;;;4.70;90.80;;;;;;9174022;19;20010;-73
2023/11/26 07:45:15;;;;;;;7.38;2.35;;;4.70;91.10;;;;;;9171754;19;20029;-72
2023/11/26 07:48:20;;;;;;;7.65;2.47;;;4.80;91.20;;;;;;9174369;19;20014;-72
2023/11/26 07:51:28;;;;;;;13.13;2.50;;;4.80;91.00;;;;;;9167187;19;20014;-72
2023/11/26 07:54:36;;;;;;;5.78;2.33;;;4.80;91.20;;;;;;9174625;19;20018;-71
2023/11/26 07:57:44;;;;;;;10.40;3.00;;;4.80;91.30;;;;;;9175520;19;20484;-71
2023/11/26 08:00:50;;;;;;;7.22;3.00;;;4.80;91.50;;;;;;9174332;19;20091;-71
2023/11/26 08:03:59;;;;;;;8.73;2.67;;;4.90;91.50;;;;;;9172838;19;20015;-71
2023/11/26 08:07:05;;;;;;;5.47;2.35;;;4.90;91.70;;;;;;9174088;19;20050;-73
2023/11/26 08:10:26;;;;;;;8.98;3.03;;;5.00;91.90;;;;;;9171683;19;20010;-74
2023/11/26 08:13:35;;;;;;;13.50;2.58;;;4.90;91.70;;;;;;9172371;19;20400;-73
2023/11/26 08:16:43;;;;;;;8.52;2.50;;;4.90;92.00;;;;;;9175715;19;20368;-73
2023/11/26 08:19:49;;;;;;;8.35;2.35;;;5.00;92.50;;;;;;9172508;19;20480;-72
2023/11/26 08:23:01;;;;;;;7.93;1.98;;;5.40;93.70;;;;;;9174899;19;20017;-72
2023/11/26 08:26:10;;;;;;;8.52;2.58;;;5.10;92.80;;;;;;9173902;19;20025;-75
2023/11/26 08:29:22;;;;;;;16.83;4.03;;;5.10;92.60;;;;;;9174578;19;20029;-73
2023/11/26 08:32:27;;;;;;;12.93;3.60;;;5.20;91.90;;;;;;9171851;19;20007;-72
2023/11/26 08:35:37;;;;;;;8.93;3.08;;;5.10;91.60;;;;;;9172809;19;20014;-72
2023/11/26 08:38:42;;;;;;;9.68;1.95;;;5.10;91.80;;;;;;9174043;19;20107;-72
2023/11/26 08:41:53;;;;;;;15.00;2.28;;;5.20;91.80;;;;;;9171606;19;20018;-74
2023/11/26 08:44:58;;;;;;;7.10;1.88;;;5.20;91.80;;;;;;9167748;19;20026;-72
2023/11/26 08:48:07;;;;;;;10.80;2.28;;;5.30;92.00;;;;;;9170550;19;20026;-73
2023/11/26 08:51:13;;;;;;;11.30;1.42;;;5.30;92.10;;;;;;9172963;19;20021;-73
2023/11/26 08:54:21;;;;;;;4.10;1.77;;;5.40;92.10;;;;;;9168482;19;20011;-74
2023/11/26 08:57:29;;;;;;;14.27;2.28;;;5.50;92.70;;;;;;9173328;19;20459;-73
2023/11/26 09:00:37;;;;;;;6.57;1.75;;;5.50;93.90;;;;;;9170608;19;20006;-73
2023/11/26 09:03:42;;;;;;;23.80;3.67;;;5.50;93.60;;;;;;9169447;19;20090;-74
2023/11/26 09:06:50;;;;;;;8.95;2.10;;;5.60;94.40;;;;;;9169412;19;20019;-73
2023/11/26 09:09:55;;;;;;;7.07;1.30;;;5.70;92.80;;;;;;9167188;19;20018;-71
2023/11/26 09:13:07;;;;;;;15.68;2.20;;;5.60;91.90;;;;;;9170279;19;20014;-73
2023/11/26 09:16:12;;;;;;;9.23;1.92;;;5.70;92.10;;;;;;9169551;19;20018;-73
2023/11/26 09:19:20;;;;;;;10.77;1.90;;;5.80;92.30;;;;;;9171715;19;20423;-74
2023/11/26 09:22:25;;;;;;;13.77;2.10;;;5.80;92.10;;;;;;9168801;19;20018;-73
2023/11/26 09:25:34;;;;;;;11.98;1.88;;;5.90;92.80;;;;;;9166844;19;20013;-73
2023/11/26 09:28:43;;;;;;;9.65;2.08;;;5.90;93.70;;;;;;9169169;19;20529;-73
2023/11/26 09:31:57;;;;;;;29.33;2.30;;;6.00;93.40;;;;;;9171708;19;20015;-72
2023/11/26 09:35:03;;;;;;;9.68;2.22;;;6.00;93.00;;;;;;9171679;19;20090;-72
2023/11/26 09:38:11;;;;;;;11.85;2.20;;;6.10;93.40;;;;;;9171809;19;20019;-73
2023/11/26 09:41:21;;;;;;;10.52;2.00;;;6.00;93.40;;;;;;9170586;19;20022;-73
2023/11/26 09:44:32;;;;;;;7.55;2.15;;;6.10;92.50;;;;;;9165462;19;20022;-73
2023/11/26 09:47:37;;;;;;;13.48;2.95;;;6.10;93.10;;;;;;9170976;19;20010;-73
2023/11/26 09:50:47;;;;;;;14.73;2.08;;;6.20;92.50;;;;;;9170663;19;20018;-73
2023/11/26 09:53:53;;;;;;;7.53;2.15;;;6.20;92.30;;;;;;9169353;19;20095;-74
2023/11/26 09:57:02;;;;;;;18.40;2.72;;;6.40;93.50;;;;;;9171224;19;20010;-73
2023/11/26 10:00:12;;;;;;;8.35;2.50;;;6.40;92.90;;;;;;9170759;19;20018;-74
2023/11/26 10:03:20;;;;;;;11.93;2.65;;;6.40;91.40;;;;;;9169809;19;20144;-73
2023/11/26 10:06:26;;;;;;;12.20;2.47;;;6.50;91.40;;;;;;9170703;19;20022;-73
2023/11/26 10:09:33;;;;;;;6.55;2.15;;;6.60;91.70;;;;;;9164499;19;20019;-72
2023/11/26 10:12:54;;;;;;;14.38;2.38;;;6.70;91.50;;;;;;9170208;19;20018;-69
2023/11/26 10:16:05;;;;;;;19.45;3.70;;;6.80;91.90;;;;;;9174086;19;20372;-69
2023/11/26 10:19:23;;;;;;;9.98;2.40;;;6.90;92.50;;;;;;9179787;19;20023;-69
2023/11/26 10:22:47;;;;;;;9.23;2.42;;;7.10;92.70;;;;;;9177402;19;20015;-70
2023/11/26 10:25:52;;;;;;;22.00;3.67;;;7.10;92.20;;;;;;9179565;19;20467;-69
2023/11/26 10:29:08;;;;;;;20.50;2.08;;;7.20;92.30;;;;;;9176913;19;20621;-69
2023/11/26 10:32:17;;;;;;;;;;;7.30;92.10;;;;;;9179771;19;20039;-68
2023/11/26 10:35:25;;;;;;;11.80;2.42;;;7.30;92.20;;;;;;9178939;19;19921;-69
2023/11/26 10:38:34;;;;;;;11.25;2.10;;;7.40;92.50;;;;;;9179036;19;20014;-70
2023/11/26 10:41:42;;;;;;;9.88;2.03;;;7.40;92.00;;;;;;9174517;19;20731;-71
2023/11/26 10:44:52;;;;;;;10.02;1.67;;;7.40;91.40;;;;;;9174380;19;20015;-70
2023/11/26 10:48:09;;;;;;;15.75;2.40;;;7.60;91.80;;;;;;9175581;19;20025;-69
2023/11/26 10:51:21;;;;;;;14.35;2.67;;;7.60;91.60;;;;;;9178269;19;20030;-70
2023/11/26 10:54:37;;;;;;;15.77;2.38;;;7.70;92.00;;;;;;9178882;19;20021;-69
2023/11/26 10:57:44;;;;;;;11.07;2.28;;;7.80;91.80;;;;;;9177743;19;20113;-68
2023/11/26 11:00:55;;;;;;;8.88;3.20;;;7.80;91.60;;;;;;9177023;19;20014;-70
2023/11/26 11:04:04;;;;;;;8.43;2.42;;;7.90;91.40;;;;;;9173824;19;20018;-69
2023/11/26 11:07:13;;;;;;;9.82;2.00;;;7.90;91.00;;;;;;9175333;19;20015;-69
2023/11/26 11:10:26;;;;;;;14.50;2.60;;;8.00;91.20;;;;;;9166079;19;20102;-69
2023/11/26 11:13:34;;;;;;;16.75;2.70;;;8.00;91.20;;;;;;9174895;19;20011;-69
2023/11/26 11:16:40;;;;;;;13.15;2.10;;;8.10;91.10;;;;;;9174635;19;20018;-69
2023/11/26 11:19:55;;;;;;;10.80;2.15;;;8.20;91.30;;;;;;9173459;19;20627;-69
2023/11/26 11:23:00;;;;;;;12.30;1.95;;;8.20;91.20;;;;;;9174488;19;20034;-69
2023/11/26 11:26:08;;;;;;;11.60;2.83;;;8.30;91.20;;;;;;9174274;19;20775;-72
2023/11/26 11:29:33;;;;;;;11.57;1.70;;;8.30;91.30;;;;;;9172811;19;20033;-70
2023/11/26 11:33:04;;;;;;;9.65;2.22;;;8.40;91.20;;;;;;9173671;19;20014;-70
2023/11/26 11:36:48;;;;;;;10.82;2.08;;;8.50;91.30;;;;;;9171076;19;20045;-69
2023/11/26 11:39:57;;;;;;;15.23;2.30;;;8.50;90.90;;;;;;9174003;19;20019;-70
2023/11/26 11:43:16;;;;;;;7.47;1.63;;;8.60;91.30;;;;;;9168731;19;20022;-70
2023/11/26 11:46:47;;;;;;;13.90;2.22;;;8.70;91.30;;;;;;9173989;19;20683;-69
2023/11/26 11:50:14;;;;;;;11.32;2.20;;;8.70;91.40;;;;;;9172277;19;20014;-71
2023/11/26 11:53:24;;;;;;;10.20;1.70;;;8.80;91.70;;;;;;9175020;19;20357;-71
2023/11/26 11:56:39;;;;;;;14.93;2.15;;;8.80;92.30;;;;;;9174320;19;20021;-72
2023/11/26 11:59:47;;;;;;;15.85;2.03;;;8.80;91.40;;;;;;9174594;19;20029;-69
2023/11/26 12:02:54;;;;;;;8.98;1.83;;;8.80;91.10;;;;;;9172847;19;20018;-72
2023/11/26 12:06:11;;;;;;;13.18;1.67;;;8.80;91.20;;;;;;9170683;19;20015;-70
2023/11/26 12:09:19;;;;;;;7.65;2.28;;;8.90;91.40;;;;;;9171246;19;20025;-69
2023/11/26 12:12:27;;;;;;;8.38;1.90;;;8.90;91.90;;;;;;9169398;19;20030;-70
2023/11/26 12:15:34;;;;;;;7.25;1.52;;;8.90;92.30;;;;;;9173756;19;20681;-69
2023/11/26 12:18:42;;;;;;;11.00;1.63;;;9.00;92.50;;;;;;9174872;19;20019;-70
2023/11/26 12:21:48;;;;;;;7.05;1.60;;;8.90;91.20;;;;;;9172746;19;20018;-70
2023/11/26 12:25:07;;;;;;;14.05;2.20;;;9.00;91.20;;;;;;9172544;19;20038;-71
2023/11/26 12:28:12;;;;;;;9.10;2.03;;;9.00;91.00;;;;;;9174539;19;20507;-70
2023/11/26 12:31:20;;;;;;;11.07;1.60;;;9.00;91.50;;;;;;9173921;19;20372;-69
2023/11/26 12:34:26;;;;;;;12.98;1.67;;;9.10;91.60;;;;;;9171435;19;20025;-69
2023/11/26 12:37:34;;;;;;;11.93;1.92;;;9.10;92.20;;;;;;9169900;19;20053;-71
2023/11/26 12:40:42;;;;;;;6.43;1.85;;;9.00;91.60;;;;;;9173977;19;20002;-69
2023/11/26 12:43:50;;;;;;;10.52;2.22;;;9.10;91.70;;;;;;9167904;19;20014;-69
2023/11/26 12:47:09;;;;;;;2.55;1.33;;;9.00;92.50;;;;;;9169534;19;20717;-70
2023/11/26 12:50:17;;;;;;;8.15;1.60;;;9.00;91.70;;;;;;9170460;19;20033;-69
2023/11/26 12:53:22;;;;;;;12.63;2.15;;;9.10;93.00;;;;;;9171542;19;20444;-70
2023/11/26 12:56:33;;;;;;;12.93;1.92;;;9.20;92.60;;;;;;9172396;19;20021;-69
2023/11/26 12:59:48;;;;;;;6.40;1.40;;;9.10;92.60;;;;;;9172095;19;20594;-70
2023/11/26 13:03:06;;;;;;;8.57;1.50;;;9.10;91.90;;;;;;9169400;19;20025;-69
2023/11/26 13:06:12;;;;;;;10.73;1.63;;;9.00;90.30;;;;;;9171254;19;20435;-69
2023/11/26 13:09:22;;;;;;;13.50;2.00;;;9.00;90.30;;;;;;9170352;19;20021;-69
2023/11/26 13:12:31;;;;;;;15.90;2.10;;;8.90;90.30;;;;;;9172738;19;20447;-70
2023/11/26 13:15:41;;;;;;;10.73;2.10;;;9.00;90.30;;;;;;9166599;19;20017;-70
2023/11/26 13:18:47;;;;;;;11.30;1.75;;;9.00;90.10;;;;;;9172214;19;20086;-69
2023/11/26 13:21:54;;;;;;;2.53;1.45;;;9.00;90.30;;;;;;9169556;19;20671;-71
2023/11/26 13:25:00;;;;;;;11.20;1.60;;;9.10;90.30;;;;;;9171729;19;20283;-69
2023/11/26 13:28:10;;;;;;;6.38;1.60;;;9.00;90.30;;;;;;9166722;19;20397;-71
2023/11/26 13:31:16;;;;;;;5.75;1.63;;;9.00;90.10;;;;;;9167064;19;20147;-69
2023/11/26 13:34:23;;;;;;;12.57;1.77;;;9.00;90.00;;;;;;9170995;19;20038;-70
2023/11/26 13:37:29;;;;;;;7.10;1.63;;;9.10;90.30;;;;;;9170807;19;20015;-70
2023/11/26 13:40:37;;;;;;;14.10;1.95;;;9.10;90.30;;;;;;9171455;19;20033;-69
2023/11/26 13:43:45;;;;;;;12.23;1.95;;;9.10;90.40;;;;;;9165631;19;20022;-73
2023/11/26 13:46:53;;;;;;;7.07;1.52;;;9.00;90.20;;;;;;9168691;19;20588;-73
2023/11/26 13:49:58;;;;;;;10.38;1.80;;;9.00;90.10;;;;;;9171639;19;20107;-73
2023/11/26 13:53:07;;;;;;;17.88;3.05;;;9.10;90.20;;;;;;9179856;19;20472;-73
2023/11/26 13:56:13;;;;;;;8.77;1.92;;;9.00;90.30;;;;;;9176925;19;20011;-73
2023/11/26 13:59:23;;;;;;;8.82;2.15;;;9.10;90.30;;;;;;9179010;19;20021;-72
2023/11/26 14:02:30;;;;;;;13.15;2.20;;;9.00;90.30;;;;;;9178446;19;20047;-72
2023/11/26 14:05:38;;;;;;;19.38;3.10;;;9.00;90.30;;;;;;9179492;19;20443;-73
2023/11/26 14:08:44;;;;;;;8.07;2.17;;;8.90;90.10;;;;;;9177217;19;20569;-72
2023/11/26 14:11:51;;;;;;;9.70;2.38;;;8.90;90.20;;;;;;9174460;19;20014;-73
2023/11/26 14:15:00;;;;;;;9.52;2.20;;;9.00;90.20;;;;;;9176851;19;20022;-73
2023/11/26 14:18:07;;;;;;;10.80;2.30;;;9.00;90.10;;;;;;9174329;19;20018;-74
2023/11/26 14:21:14;;;;;;;5.82;1.30;;;8.90;90.10;;;;;;9177800;19;20605;-72
2023/11/26 14:24:22;;;;;;;13.90;1.85;;;8.90;90.20;;;;;;9178942;19;20018;-73
2023/11/26 14:27:27;;;;;;;10.85;2.45;;;8.90;90.40;;;;;;9174913;19;20014;-73
2023/11/26 14:30:37;;;;;;;13.65;2.45;;;8.90;90.40;;;;;;9176414;19;20019;-72
2023/11/26 14:33:42;;;;;;;8.98;1.77;;;8.80;90.50;;;;;;9179390;19;20017;-74
2023/11/26 14:36:54;;;;;;;12.98;2.80;;;8.90;90.40;;;;;;9177737;19;20022;-73
2023/11/26 14:40:09;;;;;;;13.98;2.13;;;8.80;90.30;;;;;;9177031;19;20102;-73
2023/11/26 14:43:17;;;;;;;15.02;2.55;;;9.00;90.40;;;;;;9173857;19;20018;-74
2023/11/26 14:46:25;;;;;;;11.18;3.42;;;8.80;90.40;;;;;;9177707;19;20090;-74
2023/11/26 14:49:32;;;;;;;8.98;1.95;;;8.70;90.30;;;;;;9175724;19;20025;-75
2023/11/26 14:52:39;;;;;;;8.95;1.35;;;8.70;90.50;;;;;;9177235;19;20015;-74
2023/11/26 14:55:47;;;;;;;6.80;1.65;;;8.70;90.40;;;;;;9177314;19;20023;-75
2023/11/26 14:58:54;;;;;;;12.27;1.90;;;8.70;90.30;;;;;;9177886;19;20025;-74
2023/11/26 15:02:04;;;;;;;9.75;1.90;;;8.60;90.30;;;;;;9175752;19;20025;-74
2023/11/26 15:05:11;;;;;;;5.32;1.63;;;8.70;90.50;;;;;;9176828;19;20023;-74
2023/11/26 15:08:20;;;;;;;9.23;1.80;;;8.60;90.30;;;;;;9176335;19;20074;-74
2023/11/26 15:11:27;;;;;;;16.85;1.90;;;8.60;90.40;;;;;;9174244;19;20045;-74
2023/11/26 15:14:35;;;;;;;17.52;1.77;;;8.60;90.60;;;;;;9175915;19;20018;-74
2023/11/26 15:17:43;;;;;;;12.65;2.30;;;8.50;90.50;;;;;;9176453;19;20011;-74
2023/11/26 15:20:52;;;;;;;6.85;2.30;;;8.50;90.30;;;;;;9175681;19;20022;-74
2023/11/26 15:23:58;;;;;;;9.05;1.52;;;8.50;90.50;;;;;;9173105;19;20014;-75
2023/11/26 15:27:06;;;;;;;9.80;1.67;;;8.50;90.50;;;;;;9174401;19;20015;-75
2023/11/26 15:30:14;;;;;;;7.18;1.48;;;8.50;90.50;;;;;;9174418;19;20018;-75
2023/11/26 15:33:25;;;;;;;9.68;2.83;;;8.50;90.50;;;;;;9175233;19;20026;-74
2023/11/26 15:36:31;;;;;;;12.70;3.70;;;8.50;90.60;;;;;;9174628;19;20022;-75
2023/11/26 15:39:39;;;;;;;13.82;3.72;;;8.50;90.90;;;;;;9175712;19;20022;-74
2023/11/26 15:42:44;;;;;;;11.25;4.28;;;8.40;90.80;;;;;;9170579;19;20033;-73
2023/11/26 15:45:52;;;;;;;9.77;4.05;;;8.40;91.00;;;;;;9174102;19;20022;-73
2023/11/26 15:49:01;;;;;;;9.60;3.67;;;8.40;90.60;;;;;;9175722;19;20034;-74
2023/11/26 15:52:10;;;;;;;14.52;2.90;;;8.40;90.70;;;;;;9170701;19;20018;-74
2023/11/26 15:55:16;;;;;;;10.70;3.75;;;8.30;90.80;;;;;;9175049;19;20014;-74
2023/11/26 15:58:25;;;;;;;6.88;2.70;;;8.30;90.70;;;;;;9174783;19;20018;-74
2023/11/26 16:01:31;;;;;;;10.07;2.75;;;8.40;90.60;;;;;;9175506;19;20014;-73
2023/11/26 16:04:42;;;;;;;7.70;2.22;;;8.40;90.60;;;;;;9169810;19;20024;-73
2023/11/26 16:07:50;;;;;;;10.82;3.28;;;8.30;90.50;;;;;;9175262;19;20029;-76
2023/11/26 16:10:58;;;;;;;6.45;2.80;;;8.30;90.70;;;;;;9174507;19;20030;-74
2023/11/26 16:14:03;;;;;;;8.70;2.38;;;8.30;90.70;;;;;;9168333;19;20026;-74
2023/11/26 16:17:11;;;;;;;8.30;2.60;;;8.30;90.70;;;;;;9174445;19;20022;-75
2023/11/26 16:20:37;;;;;;;12.82;3.10;;;8.20;90.60;;;;;;9172145;19;20683;-75
2023/11/26 16:23:45;;;;;;;6.32;2.80;;;8.20;90.70;;;;;;9170095;19;20010;-74
2023/11/26 16:26:52;;;;;;;8.70;2.35;;;8.30;91.10;;;;;;9173668;19;20966;-76
2023/11/26 16:30:00;;;;;;;6.50;2.72;;;8.20;90.90;;;;;;9173117;19;20014;-74